createdAt,value
2022-11-15T00:05:40.195Z,6.34
2022-11-15T00:11:05.046Z,7.12
2022-11-15T00:16:28.108Z,7.39
2022-11-15T00:21:51.812Z,6.45
2022-11-15T00:27:15.851Z,6.96
2022-11-15T00:32:40.079Z,6.98
2022-11-15T00:38:04.899Z,5.58
2022-11-15T00:43:27.493Z,6.00
2022-11-15T00:48:50.740Z,5.79
2022-11-15T00:54:16.553Z,6.19
2022-11-15T00:59:39.590Z,6.73
2022-11-15T01:05:02.368Z,7.08
2022-11-15T01:10:27.061Z,7.52
2022-11-15T01:15:49.929Z,7.27
2022-11-15T01:21:15.937Z,7.32
2022-11-15T01:26:40.394Z,7.01
2022-11-15T01:32:03.112Z,7.27
2022-11-15T01:37:28.987Z,7.77
2022-11-15T01:42:53.338Z,7.55
2022-11-15T01:48:16.167Z,7.46
2022-11-15T01:53:41.378Z,7.03
2022-11-15T01:59:10.127Z,7.38
2022-11-15T02:04:34.920Z,6.69
2022-11-15T02:09:58.607Z,7.12
2022-11-15T02:15:29.402Z,7.31
2022-11-15T02:21:08.727Z,7.21
2022-11-15T02:27:03.060Z,6.45
2022-11-15T02:32:36.756Z,7.10
2022-11-15T02:38:02.340Z,6.98
2022-11-15T02:43:48.600Z,7.05
2022-11-15T02:49:15.656Z,7.29
2022-11-15T02:54:38.566Z,7.70
2022-11-15T03:00:08.522Z,8.39
2022-11-15T03:05:40.436Z,7.92
2022-11-15T03:11:11.004Z,7.04
2022-11-15T03:16:38.719Z,6.99
2022-11-15T03:22:07.042Z,7.95
2022-11-15T03:27:34.128Z,7.78
2022-11-15T03:33:02.522Z,7.64
2022-11-15T03:38:31.501Z,7.50
2022-11-15T03:43:59.384Z,7.57
2022-11-15T03:49:28.112Z,7.06
2022-11-15T03:54:55.184Z,5.56
2022-11-15T04:00:18.577Z,5.87
2022-11-15T04:05:41.719Z,5.54
2022-11-15T04:11:06.102Z,6.66
2022-11-15T04:16:28.878Z,5.52
2022-11-15T04:22:09.267Z,6.06
2022-11-15T04:27:33.717Z,5.93
2022-11-15T04:32:56.636Z,5.81
2022-11-15T04:38:19.880Z,6.81
2022-11-15T04:43:46.129Z,6.54
2022-11-15T04:49:11.887Z,6.74
2022-11-15T04:54:37.789Z,6.28
2022-11-15T05:00:04.825Z,6.56
2022-11-15T05:05:30.566Z,5.55
2022-11-15T05:10:56.159Z,5.70
2022-11-15T05:16:27.116Z,5.59
2022-11-15T05:21:51.818Z,5.73
2022-11-15T05:27:17.308Z,5.13
2022-11-15T05:32:47.875Z,4.31
2022-11-15T05:38:13.474Z,4.03
2022-11-15T05:43:42.323Z,4.55
2022-11-15T05:49:14.683Z,4.82
2022-11-15T05:54:41.273Z,4.22
2022-11-15T06:00:07.764Z,5.54
2022-11-15T06:05:34.437Z,6.32
2022-11-15T06:11:00.162Z,5.86
2022-11-15T06:16:25.621Z,5.52
2022-11-15T06:21:52.504Z,5.58
2022-11-15T06:27:19.573Z,5.07
2022-11-15T06:32:45.213Z,5.32
2022-11-15T06:38:14.798Z,5.45
2022-11-15T06:43:38.356Z,6.08
2022-11-15T06:49:03.986Z,5.62
2022-11-15T06:54:32.681Z,5.56
2022-11-15T06:59:55.793Z,6.54
2022-11-15T07:05:18.763Z,6.67
2022-11-15T07:10:44.670Z,7.45
2022-11-15T07:16:11.817Z,7.24
2022-11-15T07:21:35.823Z,7.06
2022-11-15T07:27:01.227Z,7.27
2022-11-15T07:32:25.204Z,7.10
2022-11-15T07:37:57.340Z,7.72
2022-11-15T07:43:22.419Z,7.73
2022-11-15T07:48:46.138Z,7.86
2022-11-15T07:54:11.117Z,8.10
2022-11-15T07:59:37.081Z,8.21
2022-11-15T08:05:02.110Z,8.56
2022-11-15T08:10:26.948Z,8.50
2022-11-15T08:15:57.728Z,8.67
2022-11-15T08:21:24.825Z,9.92
2022-11-15T08:26:48.236Z,10.71
2022-11-15T08:32:12.694Z,10.69
2022-11-15T08:37:35.650Z,10.76
2022-11-15T08:43:00.217Z,11.01
2022-11-15T08:48:26.434Z,11.92
2022-11-15T08:53:51.335Z,11.97
2022-11-15T08:59:16.676Z,12.62
2022-11-15T09:04:43.531Z,12.38
2022-11-15T09:10:09.047Z,12.31
2022-11-15T09:15:34.031Z,12.26
2022-11-15T09:21:00.935Z,13.27
2022-11-15T09:26:24.144Z,13.46
2022-11-15T09:31:46.590Z,14.04
2022-11-15T09:37:10.969Z,13.19
2022-11-15T09:42:50.266Z,12.85
2022-11-15T09:48:31.689Z,13.56
2022-11-15T09:59:51.433Z,14.72
2022-11-15T10:04:56.265Z,14.74
2022-11-15T10:10:19.832Z,15.13
2022-11-15T10:15:24.453Z,15.16
2022-11-15T10:20:30.610Z,14.77
2022-11-15T10:25:37.960Z,14.22
2022-11-15T10:30:44.055Z,15.28
2022-11-15T10:36:09.113Z,15.29
2022-11-15T10:41:15.096Z,15.28
2022-11-15T10:46:45.775Z,14.87
2022-11-15T10:51:50.900Z,15.11
2022-11-15T10:56:59.560Z,15.76
2022-11-15T11:02:04.320Z,15.95
2022-11-15T11:07:23.305Z,15.10
2022-11-15T11:12:33.951Z,15.49
2022-11-15T11:17:53.834Z,15.38
2022-11-15T11:23:05.993Z,15.76
2022-11-15T11:28:28.021Z,16.19
2022-11-15T11:33:35.555Z,15.20
2022-11-15T11:38:56.125Z,15.96
2022-11-15T11:44:14.870Z,16.22
2022-11-15T11:49:25.822Z,17.08
2022-11-15T11:54:37.165Z,17.36
2022-11-15T11:59:52.434Z,18.92
2022-11-15T12:05:12.604Z,19.53
2022-11-15T12:10:25.585Z,19.63
2022-11-15T12:15:37.927Z,21.13
2022-11-15T12:20:52.467Z,21.15
2022-11-15T12:26:01.903Z,21.11
2022-11-15T12:31:15.407Z,21.06
2022-11-15T12:36:38.863Z,20.49
2022-11-15T12:41:44.921Z,20.52
2022-11-15T12:47:06.279Z,21.16
2022-11-15T12:52:11.794Z,20.54
2022-11-15T12:57:30.760Z,19.22
2022-11-15T13:02:38.243Z,20.13
2022-11-15T13:08:00.545Z,20.12
2022-11-15T13:13:07.092Z,19.75
2022-11-15T13:18:43.241Z,19.99
2022-11-15T13:23:48.316Z,19.87
2022-11-15T13:28:55.937Z,19.84
2022-11-15T13:34:17.722Z,19.58
2022-11-15T13:39:31.706Z,19.81
2022-11-15T13:44:36.647Z,19.50
2022-11-15T13:49:43.769Z,19.33
2022-11-15T13:54:56.726Z,18.96
2022-11-15T14:00:06.302Z,18.89
2022-11-15T14:05:19.867Z,17.13
2022-11-15T14:10:30.164Z,15.83
2022-11-15T14:15:36.398Z,14.72
2022-11-15T14:20:42.500Z,14.07
2022-11-15T14:25:55.265Z,13.67
2022-11-15T14:31:02.511Z,13.66
2022-11-15T14:36:15.107Z,12.68
2022-11-15T14:41:25.125Z,12.80
2022-11-15T14:46:29.948Z,12.78
2022-11-15T14:51:38.922Z,12.32
2022-11-15T14:56:49.019Z,11.78
2022-11-15T15:02:02.672Z,12.28
2022-11-15T15:07:08.805Z,11.75
2022-11-15T15:12:22.811Z,11.66
2022-11-15T15:17:27.133Z,11.93
2022-11-15T15:22:33.164Z,11.81
2022-11-15T15:27:37.380Z,12.65
2022-11-15T15:32:41.941Z,13.38
2022-11-15T15:37:48.606Z,13.21
2022-11-15T15:42:52.988Z,12.70
2022-11-15T15:47:57.648Z,12.04
2022-11-15T15:53:05.731Z,11.94
2022-11-15T15:58:12.419Z,11.54
2022-11-15T16:03:16.764Z,10.71
2022-11-15T16:08:24.156Z,11.90
2022-11-15T16:13:29.683Z,11.26
2022-11-15T16:18:34.535Z,12.39
2022-11-15T16:23:40.478Z,12.61
2022-11-15T16:28:44.685Z,13.17
2022-11-15T16:33:48.947Z,12.53
2022-11-15T16:38:54.862Z,13.09
2022-11-15T16:50:52.421Z,12.57
2022-11-15T16:55:58.666Z,12.65
2022-11-15T17:01:03.075Z,12.06
2022-11-15T17:06:10.544Z,11.88
2022-11-15T17:11:17.677Z,11.87
2022-11-15T17:16:21.806Z,12.88
2022-11-15T17:21:33.377Z,12.65
2022-11-15T17:26:40.754Z,11.25
2022-11-15T17:31:45.402Z,11.58
2022-11-15T17:36:51.473Z,11.96
2022-11-15T17:41:55.852Z,12.13
2022-11-15T17:47:00.442Z,12.69
2022-11-15T17:52:06.303Z,12.40
2022-11-15T17:57:10.546Z,12.33
2022-11-15T18:02:14.772Z,12.88
2022-11-15T18:07:20.782Z,12.63
2022-11-15T18:12:24.998Z,13.45
2022-11-15T18:17:30.335Z,12.39
2022-11-15T18:22:36.205Z,12.34
2022-11-15T18:27:40.352Z,12.51
2022-11-15T18:32:44.861Z,12.34
2022-11-15T18:37:50.339Z,12.38
2022-11-15T18:43:01.398Z,12.40
2022-11-15T18:48:25.135Z,12.58
2022-11-15T18:53:41.630Z,12.58
2022-11-15T18:58:50.170Z,13.48
2022-11-15T19:03:58.443Z,13.23
2022-11-15T19:09:07.858Z,13.30
2022-11-15T19:14:18.738Z,13.57
2022-11-15T19:19:27.904Z,12.94
2022-11-15T19:24:39.523Z,13.25
2022-11-15T19:29:47.620Z,13.60
2022-11-15T19:34:54.998Z,12.37
2022-11-15T19:40:17.348Z,12.64
2022-11-15T19:45:29.709Z,11.98
2022-11-15T19:50:55.392Z,12.59
2022-11-15T19:56:12.385Z,12.86
2022-11-15T20:01:26.216Z,12.60
2022-11-15T20:06:39.606Z,12.55
2022-11-15T20:12:14.775Z,12.14
2022-11-15T20:17:24.662Z,12.21
2022-11-15T20:23:12.764Z,12.43
2022-11-15T20:29:01.348Z,12.52
2022-11-15T20:34:20.261Z,12.84
2022-11-15T20:39:39.243Z,11.86
2022-11-15T20:44:52.202Z,12.15
2022-11-15T20:50:40.600Z,12.29
2022-11-15T20:55:43.684Z,12.62
2022-11-15T21:00:49.917Z,11.50
2022-11-15T21:05:55.224Z,12.15
2022-11-15T21:11:16.776Z,12.16
2022-11-15T21:16:22.499Z,11.17
2022-11-15T21:21:26.828Z,11.69
2022-11-15T21:26:31.076Z,11.77
2022-11-15T21:31:37.583Z,11.91
2022-11-15T21:36:41.944Z,11.92
2022-11-15T21:41:46.192Z,11.34
2022-11-15T21:46:52.339Z,11.24
2022-11-15T21:51:56.662Z,11.85
2022-11-15T21:57:00.782Z,11.09
2022-11-15T22:02:18.340Z,11.33
2022-11-15T22:07:22.870Z,11.74
2022-11-15T22:12:29.793Z,10.46
2022-11-15T22:17:59.087Z,10.55
2022-11-15T22:23:03.601Z,11.60
2022-11-15T22:28:08.920Z,11.16
2022-11-15T22:33:14.668Z,11.27
2022-11-15T22:38:19.840Z,10.52
2022-11-15T22:43:25.576Z,10.20
2022-11-15T22:48:33.340Z,10.53
2022-11-15T22:53:41.136Z,11.44
2022-11-15T22:58:45.561Z,11.31
2022-11-15T23:03:51.325Z,11.48
2022-11-15T23:08:55.431Z,11.68
2022-11-15T23:13:59.649Z,11.06
2022-11-15T23:19:07.713Z,11.86
2022-11-15T23:24:13.042Z,11.39
2022-11-15T23:29:20.085Z,11.74
2022-11-15T23:34:26.587Z,11.77
2022-11-15T23:39:30.890Z,12.03
2022-11-15T23:44:35.150Z,10.61
2022-11-15T23:49:41.135Z,11.50
2022-11-15T23:54:45.484Z,10.61
2022-11-15T23:59:49.653Z,10.76
